Ana Sayfa
METAR-TAF:

METAR-TAF

Havaalanları :

Luksor, Mısır

Enlem: 25-40N, Boylam: 032-42E, yükseklik: 93 m

Güncel hava durumu gözlemi

Rapor saat 20:00 UTC de 41 dakika önce yapıldı.
Sakin rüzgar
Sıcaklık 13°C
Nem 72%
Basınç 1020 hPa
Görüş mesafesi 10 km veya daha fazla
1500 m altında bulut yok ve kümülonimbus yok

METAR: HELX 182000Z 00000KT CAVOK 13/08 Q1020 NOSIG

Saat: 22:41 (20:41 UTC)

Tahmin

Rapor saat 17:00 UTC de 3 saat ve 41 dakika önce yapıldı.
Ayın 18'si saat 18 UTC'den ayın 19'si saat 24 UTC'ye kadar geçerli Tahmin
Rüzgar batı/kuzeybatıdan 8 kt
Görüş mesafesi 10 km veya daha fazla
1500 m altında bulut yok ve kümülonimbus yok

TAF: HELX 181700Z 1818/1924 30008KT CAVOK

4.000'den fazla havaalanı için hava durumu gözlemleri ve tahminleri (METAR ve TAF raporları).

Kullanılabilir istasyonlar harita üzerinde sarı ve kırmızı noktalarla gösterilir.

İstasyonun adını görmek için fareyi noktanın üzerinde gezdirin.

Sonrasında hava gözlem ve tahminlerini görmek için tıklayın.

Haritayı değiştirmek için: yaklaştırmak için siyah artı işaretli yeşil düğmeye ve uzaklaştırmak için de eksi işaretli düğmeye hızla tıklayın; bitişik haritalar için yeşil okları kullanın.


METAR-TAF: